sensor_id;sensor_type;location;lat;lon;timestamp;P1;durP1;ratioP1;P2;durP2;ratioP2
19016;SDS011;9641;51.494;6.670;2022-11-15T00:01:35;12.30;;;7.70;;
19016;SDS011;9641;51.494;6.670;2022-11-15T00:04:21;19.80;;;8.03;;
19016;SDS011;9641;51.494;6.670;2022-11-15T00:07:07;12.63;;;8.03;;
19016;SDS011;9641;51.494;6.670;2022-11-15T00:09:53;12.67;;;7.63;;
19016;SDS011;9641;51.494;6.670;2022-11-15T00:12:38;11.90;;;8.03;;
19016;SDS011;9641;51.494;6.670;2022-11-15T00:15:25;15.97;;;8.33;;
19016;SDS011;9641;51.494;6.670;2022-11-15T00:18:11;12.43;;;8.37;;
19016;SDS011;9641;51.494;6.670;2022-11-15T00:21:02;14.70;;;8.67;;
19016;SDS011;9641;51.494;6.670;2022-11-15T00:23:49;15.20;;;8.60;;
19016;SDS011;9641;51.494;6.670;2022-11-15T00:26:35;13.30;;;8.77;;
19016;SDS011;9641;51.494;6.670;2022-11-15T00:29:21;11.83;;;8.00;;
19016;SDS011;9641;51.494;6.670;2022-11-15T00:32:07;14.83;;;8.00;;
19016;SDS011;9641;51.494;6.670;2022-11-15T00:34:53;15.23;;;7.90;;
19016;SDS011;9641;51.494;6.670;2022-11-15T00:37:38;12.20;;;8.47;;
19016;SDS011;9641;51.494;6.670;2022-11-15T00:40:24;12.63;;;7.87;;
19016;SDS011;9641;51.494;6.670;2022-11-15T00:43:09;13.77;;;8.17;;
19016;SDS011;9641;51.494;6.670;2022-11-15T00:45:55;14.67;;;9.10;;
19016;SDS011;9641;51.494;6.670;2022-11-15T00:48:42;15.40;;;9.10;;
19016;SDS011;9641;51.494;6.670;2022-11-15T00:51:27;14.97;;;8.50;;
19016;SDS011;9641;51.494;6.670;2022-11-15T00:54:13;12.93;;;8.87;;
19016;SDS011;9641;51.494;6.670;2022-11-15T00:57:01;16.27;;;8.13;;
19016;SDS011;9641;51.494;6.670;2022-11-15T00:59:46;15.63;;;8.87;;
19016;SDS011;9641;51.494;6.670;2022-11-15T01:02:31;17.10;;;9.07;;
19016;SDS011;9641;51.494;6.670;2022-11-15T01:05:18;15.80;;;8.63;;
19016;SDS011;9641;51.494;6.670;2022-11-15T01:08:04;14.73;;;8.77;;
19016;SDS011;9641;51.494;6.670;2022-11-15T01:10:49;15.10;;;8.10;;
19016;SDS011;9641;51.494;6.670;2022-11-15T01:13:36;13.07;;;8.47;;
19016;SDS011;9641;51.494;6.670;2022-11-15T01:16:25;16.87;;;8.13;;
19016;SDS011;9641;51.494;6.670;2022-11-15T01:19:11;14.17;;;7.60;;
19016;SDS011;9641;51.494;6.670;2022-11-15T01:21:58;12.00;;;8.07;;
19016;SDS011;9641;51.494;6.670;2022-11-15T01:24:44;13.03;;;8.37;;
19016;SDS011;9641;51.494;6.670;2022-11-15T01:27:30;12.70;;;7.87;;
19016;SDS011;9641;51.494;6.670;2022-11-15T01:30:15;13.13;;;7.10;;
19016;SDS011;9641;51.494;6.670;2022-11-15T01:33:01;14.43;;;8.20;;
19016;SDS011;9641;51.494;6.670;2022-11-15T01:35:46;14.30;;;7.93;;
19016;SDS011;9641;51.494;6.670;2022-11-15T01:38:33;13.77;;;8.07;;
19016;SDS011;9641;51.494;6.670;2022-11-15T01:41:20;13.67;;;7.73;;
19016;SDS011;9641;51.494;6.670;2022-11-15T01:47:22;12.53;;;7.97;;
19016;SDS011;9641;51.494;6.670;2022-11-15T01:50:12;16.83;;;8.03;;
19016;SDS011;9641;51.494;6.670;2022-11-15T01:53:01;12.50;;;8.30;;
19016;SDS011;9641;51.494;6.670;2022-11-15T01:55:48;13.63;;;8.17;;
19016;SDS011;9641;51.494;6.670;2022-11-15T01:58:34;12.07;;;7.77;;
19016;SDS011;9641;51.494;6.670;2022-11-15T02:01:20;11.33;;;7.00;;
19016;SDS011;9641;51.494;6.670;2022-11-15T02:04:08;10.17;;;7.13;;
19016;SDS011;9641;51.494;6.670;2022-11-15T02:06:57;13.53;;;7.83;;
19016;SDS011;9641;51.494;6.670;2022-11-15T02:09:44;10.37;;;7.63;;
19016;SDS011;9641;51.494;6.670;2022-11-15T02:12:32;12.57;;;7.07;;
19016;SDS011;9641;51.494;6.670;2022-11-15T02:15:18;11.50;;;7.00;;
19016;SDS011;9641;51.494;6.670;2022-11-15T02:18:07;9.33;;;7.47;;
19016;SDS011;9641;51.494;6.670;2022-11-15T02:21:03;10.60;;;6.93;;
19016;SDS011;9641;51.494;6.670;2022-11-15T02:24:16;10.73;;;7.07;;
19016;SDS011;9641;51.494;6.670;2022-11-15T02:27:27;12.43;;;7.17;;
19016;SDS011;9641;51.494;6.670;2022-11-15T02:30:38;12.30;;;6.60;;
19016;SDS011;9641;51.494;6.670;2022-11-15T02:33:29;11.13;;;6.83;;
19016;SDS011;9641;51.494;6.670;2022-11-15T02:36:23;12.60;;;7.40;;
19016;SDS011;9641;51.494;6.670;2022-11-15T02:39:22;8.17;;;6.50;;
19016;SDS011;9641;51.494;6.670;2022-11-15T02:42:13;9.43;;;7.13;;
19016;SDS011;9641;51.494;6.670;2022-11-15T02:45:21;11.50;;;7.00;;
19016;SDS011;9641;51.494;6.670;2022-11-15T02:48:11;12.50;;;7.40;;
19016;SDS011;9641;51.494;6.670;2022-11-15T02:50:58;11.77;;;7.07;;
19016;SDS011;9641;51.494;6.670;2022-11-15T02:53:43;11.37;;;7.03;;
19016;SDS011;9641;51.494;6.670;2022-11-15T02:56:29;12.80;;;7.30;;
19016;SDS011;9641;51.494;6.670;2022-11-15T03:02:42;12.80;;;7.50;;
19016;SDS011;9641;51.494;6.670;2022-11-15T03:05:40;9.87;;;6.80;;
19016;SDS011;9641;51.494;6.670;2022-11-15T03:08:35;16.80;;;7.07;;
19016;SDS011;9641;51.494;6.670;2022-11-15T03:11:25;9.17;;;6.87;;
19016;SDS011;9641;51.494;6.670;2022-11-15T03:14:14;9.73;;;7.10;;
19016;SDS011;9641;51.494;6.670;2022-11-15T03:17:07;12.43;;;7.43;;
19016;SDS011;9641;51.494;6.670;2022-11-15T03:20:01;9.27;;;7.07;;
19016;SDS011;9641;51.494;6.670;2022-11-15T03:22:50;12.67;;;7.30;;
19016;SDS011;9641;51.494;6.670;2022-11-15T03:25:38;12.57;;;7.37;;
19016;SDS011;9641;51.494;6.670;2022-11-15T03:28:28;13.73;;;7.57;;
19016;SDS011;9641;51.494;6.670;2022-11-15T03:31:17;14.87;;;7.33;;
19016;SDS011;9641;51.494;6.670;2022-11-15T03:34:26;13.60;;;8.00;;
19016;SDS011;9641;51.494;6.670;2022-11-15T03:37:16;12.00;;;7.47;;
19016;SDS011;9641;51.494;6.670;2022-11-15T03:40:07;11.73;;;7.03;;
19016;SDS011;9641;51.494;6.670;2022-11-15T03:42:54;15.63;;;7.73;;
19016;SDS011;9641;51.494;6.670;2022-11-15T03:45:47;12.97;;;7.27;;
19016;SDS011;9641;51.494;6.670;2022-11-15T03:48:39;14.93;;;7.47;;
19016;SDS011;9641;51.494;6.670;2022-11-15T03:51:28;13.20;;;7.97;;
19016;SDS011;9641;51.494;6.670;2022-11-15T03:54:14;12.13;;;8.27;;
19016;SDS011;9641;51.494;6.670;2022-11-15T03:57:01;10.77;;;6.93;;
19016;SDS011;9641;51.494;6.670;2022-11-15T03:59:46;12.13;;;7.43;;
19016;SDS011;9641;51.494;6.670;2022-11-15T04:02:32;12.50;;;7.40;;
19016;SDS011;9641;51.494;6.670;2022-11-15T04:05:17;10.30;;;6.90;;
19016;SDS011;9641;51.494;6.670;2022-11-15T04:08:03;11.93;;;7.60;;
19016;SDS011;9641;51.494;6.670;2022-11-15T04:10:48;11.33;;;6.80;;
19016;SDS011;9641;51.494;6.670;2022-11-15T04:13:35;12.77;;;7.87;;
19016;SDS011;9641;51.494;6.670;2022-11-15T04:16:21;10.60;;;7.30;;
19016;SDS011;9641;51.494;6.670;2022-11-15T04:19:06;10.33;;;6.80;;
19016;SDS011;9641;51.494;6.670;2022-11-15T04:22:10;11.10;;;6.93;;
19016;SDS011;9641;51.494;6.670;2022-11-15T04:25:12;11.63;;;7.40;;
19016;SDS011;9641;51.494;6.670;2022-11-15T04:27:58;12.57;;;7.50;;
19016;SDS011;9641;51.494;6.670;2022-11-15T04:30:45;9.93;;;6.67;;
19016;SDS011;9641;51.494;6.670;2022-11-15T04:33:31;8.17;;;6.57;;
19016;SDS011;9641;51.494;6.670;2022-11-15T04:36:17;11.57;;;8.00;;
19016;SDS011;9641;51.494;6.670;2022-11-15T04:39:20;11.30;;;7.30;;
19016;SDS011;9641;51.494;6.670;2022-11-15T04:42:06;14.13;;;8.00;;
19016;SDS011;9641;51.494;6.670;2022-11-15T04:44:52;12.93;;;7.90;;
19016;SDS011;9641;51.494;6.670;2022-11-15T04:47:39;15.50;;;8.60;;
19016;SDS011;9641;51.494;6.670;2022-11-15T04:50:24;14.10;;;8.07;;
19016;SDS011;9641;51.494;6.670;2022-11-15T04:53:10;11.33;;;7.73;;
19016;SDS011;9641;51.494;6.670;2022-11-15T04:55:55;11.57;;;7.80;;
19016;SDS011;9641;51.494;6.670;2022-11-15T04:58:41;13.47;;;8.80;;
19016;SDS011;9641;51.494;6.670;2022-11-15T05:01:26;13.83;;;8.77;;
19016;SDS011;9641;51.494;6.670;2022-11-15T05:04:13;18.30;;;9.13;;
19016;SDS011;9641;51.494;6.670;2022-11-15T05:07:04;14.60;;;8.80;;
19016;SDS011;9641;51.494;6.670;2022-11-15T05:09:49;15.10;;;8.60;;
19016;SDS011;9641;51.494;6.670;2022-11-15T05:12:34;13.47;;;8.90;;
19016;SDS011;9641;51.494;6.670;2022-11-15T05:15:20;14.37;;;8.30;;
19016;SDS011;9641;51.494;6.670;2022-11-15T05:18:05;13.47;;;8.13;;
19016;SDS011;9641;51.494;6.670;2022-11-15T05:20:52;11.10;;;7.13;;
19016;SDS011;9641;51.494;6.670;2022-11-15T05:23:38;11.47;;;7.80;;
19016;SDS011;9641;51.494;6.670;2022-11-15T05:26:24;13.83;;;7.60;;
19016;SDS011;9641;51.494;6.670;2022-11-15T05:29:10;12.50;;;7.30;;
19016;SDS011;9641;51.494;6.670;2022-11-15T05:31:56;13.00;;;8.43;;
19016;SDS011;9641;51.494;6.670;2022-11-15T05:34:41;14.40;;;7.70;;
19016;SDS011;9641;51.494;6.670;2022-11-15T05:37:28;14.67;;;8.30;;
19016;SDS011;9641;51.494;6.670;2022-11-15T05:40:14;13.03;;;8.00;;
19016;SDS011;9641;51.494;6.670;2022-11-15T05:43:00;13.50;;;7.43;;
19016;SDS011;9641;51.494;6.670;2022-11-15T05:45:48;13.67;;;8.00;;
19016;SDS011;9641;51.494;6.670;2022-11-15T05:48:34;13.50;;;7.47;;
19016;SDS011;9641;51.494;6.670;2022-11-15T05:51:22;13.33;;;7.97;;
19016;SDS011;9641;51.494;6.670;2022-11-15T05:54:09;9.90;;;6.90;;
19016;SDS011;9641;51.494;6.670;2022-11-15T05:56:55;10.17;;;7.20;;
19016;SDS011;9641;51.494;6.670;2022-11-15T05:59:41;11.00;;;6.40;;
19016;SDS011;9641;51.494;6.670;2022-11-15T06:02:28;9.23;;;6.33;;
19016;SDS011;9641;51.494;6.670;2022-11-15T06:05:13;16.37;;;7.40;;
19016;SDS011;9641;51.494;6.670;2022-11-15T06:08:02;9.97;;;6.43;;
19016;SDS011;9641;51.494;6.670;2022-11-15T06:10:51;11.83;;;6.67;;
19016;SDS011;9641;51.494;6.670;2022-11-15T06:13:37;9.17;;;6.10;;
19016;SDS011;9641;51.494;6.670;2022-11-15T06:16:22;8.47;;;5.90;;
19016;SDS011;9641;51.494;6.670;2022-11-15T06:19:07;9.10;;;6.70;;
19016;SDS011;9641;51.494;6.670;2022-11-15T06:21:53;11.93;;;6.50;;
19016;SDS011;9641;51.494;6.670;2022-11-15T06:24:39;10.27;;;6.53;;
19016;SDS011;9641;51.494;6.670;2022-11-15T06:27:26;9.97;;;6.40;;
19016;SDS011;9641;51.494;6.670;2022-11-15T06:30:11;11.27;;;6.60;;
19016;SDS011;9641;51.494;6.670;2022-11-15T06:33:01;12.17;;;7.10;;
19016;SDS011;9641;51.494;6.670;2022-11-15T06:35:47;13.50;;;6.40;;
19016;SDS011;9641;51.494;6.670;2022-11-15T06:38:33;10.67;;;6.77;;
19016;SDS011;9641;51.494;6.670;2022-11-15T06:41:19;13.53;;;7.57;;
19016;SDS011;9641;51.494;6.670;2022-11-15T06:44:06;10.40;;;5.87;;
19016;SDS011;9641;51.494;6.670;2022-11-15T06:46:51;9.43;;;5.70;;
19016;SDS011;9641;51.494;6.670;2022-11-15T06:49:37;8.90;;;6.27;;
19016;SDS011;9641;51.494;6.670;2022-11-15T06:52:23;9.17;;;5.90;;
19016;SDS011;9641;51.494;6.670;2022-11-15T06:55:08;11.83;;;6.47;;
19016;SDS011;9641;51.494;6.670;2022-11-15T06:57:54;8.70;;;6.07;;
19016;SDS011;9641;51.494;6.670;2022-11-15T07:00:41;8.80;;;6.43;;
19016;SDS011;9641;51.494;6.670;2022-11-15T07:03:27;10.43;;;5.70;;
19016;SDS011;9641;51.494;6.670;2022-11-15T07:06:13;8.17;;;5.80;;
19016;SDS011;9641;51.494;6.670;2022-11-15T07:08:58;8.50;;;5.63;;
19016;SDS011;9641;51.494;6.670;2022-11-15T07:11:44;8.93;;;5.60;;
19016;SDS011;9641;51.494;6.670;2022-11-15T07:14:30;10.00;;;6.00;;
19016;SDS011;9641;51.494;6.670;2022-11-15T07:17:17;10.50;;;5.90;;
19016;SDS011;9641;51.494;6.670;2022-11-15T07:20:02;12.43;;;5.87;;
19016;SDS011;9641;51.494;6.670;2022-11-15T07:22:48;7.60;;;5.97;;
19016;SDS011;9641;51.494;6.670;2022-11-15T07:25:34;6.77;;;4.93;;
19016;SDS011;9641;51.494;6.670;2022-11-15T07:28:19;5.80;;;4.73;;
19016;SDS011;9641;51.494;6.670;2022-11-15T07:31:05;6.87;;;4.50;;
19016;SDS011;9641;51.494;6.670;2022-11-15T07:33:53;6.50;;;4.30;;
19016;SDS011;9641;51.494;6.670;2022-11-15T07:36:39;7.37;;;4.33;;
19016;SDS011;9641;51.494;6.670;2022-11-15T07:39:24;7.70;;;4.40;;
19016;SDS011;9641;51.494;6.670;2022-11-15T07:42:10;6.63;;;4.10;;
19016;SDS011;9641;51.494;6.670;2022-11-15T07:45:13;4.00;;;3.47;;
19016;SDS011;9641;51.494;6.670;2022-11-15T07:47:59;4.87;;;3.13;;
19016;SDS011;9641;51.494;6.670;2022-11-15T07:50:46;4.13;;;2.60;;
19016;SDS011;9641;51.494;6.670;2022-11-15T07:53:32;8.57;;;3.30;;
19016;SDS011;9641;51.494;6.670;2022-11-15T07:56:17;4.10;;;2.93;;
19016;SDS011;9641;51.494;6.670;2022-11-15T07:59:04;4.07;;;3.20;;
19016;SDS011;9641;51.494;6.670;2022-11-15T08:01:49;6.23;;;2.50;;
19016;SDS011;9641;51.494;6.670;2022-11-15T08:04:35;5.47;;;2.57;;
19016;SDS011;9641;51.494;6.670;2022-11-15T08:07:22;2.73;;;2.53;;
19016;SDS011;9641;51.494;6.670;2022-11-15T08:10:07;3.80;;;2.17;;
19016;SDS011;9641;51.494;6.670;2022-11-15T08:12:58;1.73;;;1.60;;
19016;SDS011;9641;51.494;6.670;2022-11-15T08:15:44;2.33;;;1.70;;
19016;SDS011;9641;51.494;6.670;2022-11-15T08:18:30;2.33;;;1.50;;
19016;SDS011;9641;51.494;6.670;2022-11-15T08:21:18;2.53;;;1.60;;
19016;SDS011;9641;51.494;6.670;2022-11-15T08:24:08;2.33;;;1.40;;
19016;SDS011;9641;51.494;6.670;2022-11-15T08:26:54;3.07;;;1.90;;
19016;SDS011;9641;51.494;6.670;2022-11-15T08:29:41;2.77;;;1.67;;
19016;SDS011;9641;51.494;6.670;2022-11-15T08:32:27;2.80;;;2.10;;
19016;SDS011;9641;51.494;6.670;2022-11-15T08:35:12;8.50;;;3.50;;
19016;SDS011;9641;51.494;6.670;2022-11-15T08:37:58;6.47;;;3.93;;
19016;SDS011;9641;51.494;6.670;2022-11-15T08:40:45;7.80;;;4.53;;
19016;SDS011;9641;51.494;6.670;2022-11-15T08:43:31;7.73;;;3.77;;
19016;SDS011;9641;51.494;6.670;2022-11-15T08:46:16;5.50;;;2.93;;
19016;SDS011;9641;51.494;6.670;2022-11-15T08:49:02;3.80;;;2.30;;
19016;SDS011;9641;51.494;6.670;2022-11-15T08:51:48;3.87;;;1.90;;
19016;SDS011;9641;51.494;6.670;2022-11-15T08:54:33;2.27;;;1.77;;
19016;SDS011;9641;51.494;6.670;2022-11-15T08:57:20;1.90;;;1.80;;
19016;SDS011;9641;51.494;6.670;2022-11-15T09:00:06;3.70;;;1.90;;
19016;SDS011;9641;51.494;6.670;2022-11-15T09:02:53;1.87;;;1.70;;
19016;SDS011;9641;51.494;6.670;2022-11-15T09:05:38;3.23;;;1.90;;
19016;SDS011;9641;51.494;6.670;2022-11-15T09:08:24;2.27;;;1.57;;
19016;SDS011;9641;51.494;6.670;2022-11-15T09:11:10;3.00;;;1.80;;
19016;SDS011;9641;51.494;6.670;2022-11-15T09:13:57;3.63;;;1.80;;
19016;SDS011;9641;51.494;6.670;2022-11-15T09:16:42;2.47;;;1.80;;
19016;SDS011;9641;51.494;6.670;2022-11-15T09:19:28;3.17;;;1.83;;
19016;SDS011;9641;51.494;6.670;2022-11-15T09:22:13;5.20;;;2.10;;
19016;SDS011;9641;51.494;6.670;2022-11-15T09:24:59;2.00;;;1.90;;
19016;SDS011;9641;51.494;6.670;2022-11-15T09:27:44;3.83;;;2.20;;
19016;SDS011;9641;51.494;6.670;2022-11-15T09:30:31;2.33;;;1.70;;
19016;SDS011;9641;51.494;6.670;2022-11-15T09:33:17;4.97;;;2.03;;
19016;SDS011;9641;51.494;6.670;2022-11-15T09:36:03;4.60;;;2.37;;
19016;SDS011;9641;51.494;6.670;2022-11-15T09:38:50;3.63;;;2.33;;
19016;SDS011;9641;51.494;6.670;2022-11-15T09:44:56;3.77;;;2.40;;
19016;SDS011;9641;51.494;6.670;2022-11-15T09:47:59;3.83;;;2.10;;
19016;SDS011;9641;51.494;6.670;2022-11-15T09:50:50;5.73;;;2.40;;
19016;SDS011;9641;51.494;6.670;2022-11-15T09:53:20;3.50;;;2.07;;
19016;SDS011;9641;51.494;6.670;2022-11-15T09:55:55;3.33;;;2.47;;
19016;SDS011;9641;51.494;6.670;2022-11-15T09:58:26;2.43;;;2.10;;
19016;SDS011;9641;51.494;6.670;2022-11-15T10:01:02;2.53;;;2.00;;
19016;SDS011;9641;51.494;6.670;2022-11-15T10:03:36;7.27;;;2.63;;
19016;SDS011;9641;51.494;6.670;2022-11-15T10:06:08;6.67;;;2.30;;
19016;SDS011;9641;51.494;6.670;2022-11-15T10:08:50;3.97;;;2.23;;
19016;SDS011;9641;51.494;6.670;2022-11-15T10:11:22;2.60;;;2.40;;
19016;SDS011;9641;51.494;6.670;2022-11-15T10:13:51;7.27;;;2.87;;
19016;SDS011;9641;51.494;6.670;2022-11-15T10:16:26;5.37;;;2.40;;
19016;SDS011;9641;51.494;6.670;2022-11-15T10:19:11;4.70;;;2.60;;
19016;SDS011;9641;51.494;6.670;2022-11-15T10:21:45;7.17;;;2.40;;
19016;SDS011;9641;51.494;6.670;2022-11-15T10:24:24;2.57;;;2.30;;
19016;SDS011;9641;51.494;6.670;2022-11-15T10:26:53;2.57;;;2.20;;
19016;SDS011;9641;51.494;6.670;2022-11-15T10:29:21;4.13;;;2.03;;
19016;SDS011;9641;51.494;6.670;2022-11-15T10:31:49;2.83;;;1.90;;
19016;SDS011;9641;51.494;6.670;2022-11-15T10:34:19;8.23;;;2.27;;
19016;SDS011;9641;51.494;6.670;2022-11-15T10:36:53;2.30;;;2.10;;
19016;SDS011;9641;51.494;6.670;2022-11-15T10:39:21;3.47;;;1.43;;
19016;SDS011;9641;51.494;6.670;2022-11-15T10:41:48;2.93;;;1.50;;
19016;SDS011;9641;51.494;6.670;2022-11-15T10:44:22;2.93;;;1.90;;
19016;SDS011;9641;51.494;6.670;2022-11-15T10:50:00;4.90;;;1.67;;
19016;SDS011;9641;51.494;6.670;2022-11-15T10:52:30;2.03;;;1.63;;
19016;SDS011;9641;51.494;6.670;2022-11-15T10:55:05;1.83;;;1.60;;
19016;SDS011;9641;51.494;6.670;2022-11-15T10:57:51;2.50;;;1.63;;
19016;SDS011;9641;51.494;6.670;2022-11-15T11:00:27;1.93;;;1.30;;
19016;SDS011;9641;51.494;6.670;2022-11-15T11:03:26;2.30;;;1.60;;
19016;SDS011;9641;51.494;6.670;2022-11-15T11:06:05;3.63;;;1.90;;
19016;SDS011;9641;51.494;6.670;2022-11-15T11:08:35;2.50;;;1.80;;
19016;SDS011;9641;51.494;6.670;2022-11-15T11:11:04;3.27;;;1.60;;
19016;SDS011;9641;51.494;6.670;2022-11-15T11:13:39;3.13;;;1.53;;
19016;SDS011;9641;51.494;6.670;2022-11-15T11:16:34;3.77;;;1.70;;
19016;SDS011;9641;51.494;6.670;2022-11-15T11:19:24;2.53;;;1.40;;
19016;SDS011;9641;51.494;6.670;2022-11-15T11:22:03;2.67;;;2.30;;
19016;SDS011;9641;51.494;6.670;2022-11-15T11:24:38;3.17;;;2.60;;
19016;SDS011;9641;51.494;6.670;2022-11-15T11:27:16;3.63;;;2.88;;
19016;SDS011;9641;51.494;6.670;2022-11-15T11:29:55;3.90;;;2.10;;
19016;SDS011;9641;51.494;6.670;2022-11-15T11:32:40;3.65;;;2.35;;
19016;SDS011;9641;51.494;6.670;2022-11-15T11:35:27;1.88;;;1.50;;
19016;SDS011;9641;51.494;6.670;2022-11-15T11:38:05;1.83;;;1.55;;
19016;SDS011;9641;51.494;6.670;2022-11-15T11:40:43;3.42;;;1.73;;
19016;SDS011;9641;51.494;6.670;2022-11-15T11:43:21;1.85;;;1.73;;
19016;SDS011;9641;51.494;6.670;2022-11-15T11:45:59;3.00;;;1.60;;
19016;SDS011;9641;51.494;6.670;2022-11-15T11:48:42;1.40;;;1.30;;
19016;SDS011;9641;51.494;6.670;2022-11-15T11:51:13;1.87;;;1.60;;
19016;SDS011;9641;51.494;6.670;2022-11-15T11:53:48;1.80;;;1.70;;
19016;SDS011;9641;51.494;6.670;2022-11-15T11:56:23;1.43;;;1.33;;
19016;SDS011;9641;51.494;6.670;2022-11-15T11:58:55;2.53;;;1.50;;
19016;SDS011;9641;51.494;6.670;2022-11-15T12:01:27;2.20;;;1.20;;
19016;SDS011;9641;51.494;6.670;2022-11-15T12:04:04;2.28;;;1.23;;
19016;SDS011;9641;51.494;6.670;2022-11-15T12:06:44;1.02;;;0.80;;
19016;SDS011;9641;51.494;6.670;2022-11-15T12:09:22;2.75;;;1.40;;
19016;SDS011;9641;51.494;6.670;2022-11-15T12:12:06;3.40;;;1.30;;
19016;SDS011;9641;51.494;6.670;2022-11-15T12:14:42;1.80;;;0.80;;
19016;SDS011;9641;51.494;6.670;2022-11-15T12:17:12;2.58;;;1.00;;
19016;SDS011;9641;51.494;6.670;2022-11-15T12:19:40;1.55;;;1.20;;
19016;SDS011;9641;51.494;6.670;2022-11-15T12:22:10;1.92;;;1.20;;
19016;SDS011;9641;51.494;6.670;2022-11-15T12:24:48;3.03;;;1.10;;
19016;SDS011;9641;51.494;6.670;2022-11-15T12:27:19;1.90;;;1.00;;
19016;SDS011;9641;51.494;6.670;2022-11-15T12:29:53;2.50;;;1.00;;
19016;SDS011;9641;51.494;6.670;2022-11-15T12:32:25;4.50;;;1.45;;
19016;SDS011;9641;51.494;6.670;2022-11-15T12:34:54;1.10;;;0.98;;
19016;SDS011;9641;51.494;6.670;2022-11-15T12:37:33;2.53;;;1.05;;
19016;SDS011;9641;51.494;6.670;2022-11-15T12:40:24;2.75;;;1.17;;
19016;SDS011;9641;51.494;6.670;2022-11-15T12:42:58;1.52;;;1.10;;
19016;SDS011;9641;51.494;6.670;2022-11-15T12:45:40;2.55;;;0.88;;
19016;SDS011;9641;51.494;6.670;2022-11-15T12:51:16;1.90;;;0.63;;
19016;SDS011;9641;51.494;6.670;2022-11-15T12:53:45;1.42;;;0.80;;
19016;SDS011;9641;51.494;6.670;2022-11-15T12:56:23;1.90;;;0.70;;
19016;SDS011;9641;51.494;6.670;2022-11-15T12:58:54;1.80;;;1.05;;
19016;SDS011;9641;51.494;6.670;2022-11-15T13:04:29;5.75;;;1.10;;
19016;SDS011;9641;51.494;6.670;2022-11-15T13:06:58;1.35;;;0.80;;
19016;SDS011;9641;51.494;6.670;2022-11-15T13:15:37;1.52;;;0.80;;
19016;SDS011;9641;51.494;6.670;2022-11-15T13:18:32;1.67;;;0.80;;
19016;SDS011;9641;51.494;6.670;2022-11-15T13:21:03;1.52;;;0.82;;
19016;SDS011;9641;51.494;6.670;2022-11-15T13:24:01;2.97;;;1.10;;
19016;SDS011;9641;51.494;6.670;2022-11-15T13:26:29;1.10;;;0.75;;
19016;SDS011;9641;51.494;6.670;2022-11-15T13:29:02;3.58;;;1.02;;
19016;SDS011;9641;51.494;6.670;2022-11-15T13:31:36;3.28;;;0.98;;
19016;SDS011;9641;51.494;6.670;2022-11-15T13:34:15;2.45;;;0.88;;
19016;SDS011;9641;51.494;6.670;2022-11-15T13:36:46;0.82;;;0.57;;
19016;SDS011;9641;51.494;6.670;2022-11-15T13:39:14;0.90;;;0.80;;
19016;SDS011;9641;51.494;6.670;2022-11-15T13:41:52;2.53;;;0.80;;
19016;SDS011;9641;51.494;6.670;2022-11-15T13:44:21;1.30;;;0.70;;
19016;SDS011;9641;51.494;6.670;2022-11-15T13:46:49;3.67;;;1.33;;
19016;SDS011;9641;51.494;6.670;2022-11-15T13:49:32;1.52;;;0.82;;
19016;SDS011;9641;51.494;6.670;2022-11-15T13:52:04;3.35;;;0.95;;
19016;SDS011;9641;51.494;6.670;2022-11-15T13:54:34;2.40;;;0.93;;
19016;SDS011;9641;51.494;6.670;2022-11-15T13:57:05;3.07;;;0.90;;
19016;SDS011;9641;51.494;6.670;2022-11-15T13:59:48;3.50;;;1.03;;
19016;SDS011;9641;51.494;6.670;2022-11-15T14:02:18;1.07;;;0.70;;
19016;SDS011;9641;51.494;6.670;2022-11-15T14:04:52;4.50;;;1.00;;
19016;SDS011;9641;51.494;6.670;2022-11-15T14:07:23;4.17;;;1.13;;
19016;SDS011;9641;51.494;6.670;2022-11-15T14:09:51;2.27;;;1.00;;
19016;SDS011;9641;51.494;6.670;2022-11-15T14:12:23;1.87;;;1.00;;
19016;SDS011;9641;51.494;6.670;2022-11-15T14:14:59;2.37;;;1.20;;
19016;SDS011;9641;51.494;6.670;2022-11-15T14:17:37;4.23;;;0.90;;
19016;SDS011;9641;51.494;6.670;2022-11-15T14:20:24;2.37;;;1.23;;
19016;SDS011;9641;51.494;6.670;2022-11-15T14:22:58;3.03;;;1.07;;
19016;SDS011;9641;51.494;6.670;2022-11-15T14:25:28;2.33;;;1.00;;
19016;SDS011;9641;51.494;6.670;2022-11-15T14:28:12;6.00;;;1.10;;
19016;SDS011;9641;51.494;6.670;2022-11-15T14:30:45;2.50;;;1.30;;
19016;SDS011;9641;51.494;6.670;2022-11-15T14:33:22;2.87;;;1.17;;
19016;SDS011;9641;51.494;6.670;2022-11-15T14:36:02;4.00;;;1.40;;
19016;SDS011;9641;51.494;6.670;2022-11-15T14:38:32;2.73;;;1.50;;
19016;SDS011;9641;51.494;6.670;2022-11-15T14:41:03;1.60;;;1.20;;
19016;SDS011;9641;51.494;6.670;2022-11-15T14:43:34;3.83;;;1.50;;
19016;SDS011;9641;51.494;6.670;2022-11-15T14:46:06;8.47;;;1.83;;
19016;SDS011;9641;51.494;6.670;2022-11-15T14:48:33;3.50;;;1.80;;
19016;SDS011;9641;51.494;6.670;2022-11-15T14:53:44;3.57;;;1.60;;
19016;SDS011;9641;51.494;6.670;2022-11-15T14:56:11;2.13;;;1.30;;
19016;SDS011;9641;51.494;6.670;2022-11-15T14:58:39;1.67;;;1.27;;
19016;SDS011;9641;51.494;6.670;2022-11-15T15:01:12;2.50;;;1.43;;
19016;SDS011;9641;51.494;6.670;2022-11-15T15:03:42;6.33;;;1.93;;
19016;SDS011;9641;51.494;6.670;2022-11-15T15:06:10;3.70;;;1.80;;
19016;SDS011;9641;51.494;6.670;2022-11-15T15:08:38;7.27;;;3.63;;
19016;SDS011;9641;51.494;6.670;2022-11-15T15:11:07;3.43;;;1.80;;
19016;SDS011;9641;51.494;6.670;2022-11-15T15:13:41;2.57;;;1.70;;
19016;SDS011;9641;51.494;6.670;2022-11-15T15:16:13;4.83;;;1.77;;
19016;SDS011;9641;51.494;6.670;2022-11-15T15:18:40;3.57;;;1.57;;
19016;SDS011;9641;51.494;6.670;2022-11-15T15:21:17;3.50;;;1.70;;
19016;SDS011;9641;51.494;6.670;2022-11-15T15:23:46;5.97;;;1.60;;
19016;SDS011;9641;51.494;6.670;2022-11-15T15:26:13;2.83;;;1.63;;
19016;SDS011;9641;51.494;6.670;2022-11-15T15:28:41;2.80;;;1.33;;
19016;SDS011;9641;51.494;6.670;2022-11-15T15:31:08;3.83;;;1.70;;
19016;SDS011;9641;51.494;6.670;2022-11-15T15:33:38;5.93;;;1.60;;
19016;SDS011;9641;51.494;6.670;2022-11-15T15:36:07;3.17;;;1.63;;
19016;SDS011;9641;51.494;6.670;2022-11-15T15:38:36;2.47;;;2.10;;
19016;SDS011;9641;51.494;6.670;2022-11-15T15:41:07;4.13;;;1.90;;
19016;SDS011;9641;51.494;6.670;2022-11-15T15:43:36;5.23;;;2.37;;
19016;SDS011;9641;51.494;6.670;2022-11-15T15:46:03;3.53;;;1.97;;
19016;SDS011;9641;51.494;6.670;2022-11-15T15:48:32;2.53;;;2.20;;
19016;SDS011;9641;51.494;6.670;2022-11-15T15:51:03;4.83;;;2.40;;
19016;SDS011;9641;51.494;6.670;2022-11-15T15:53:30;2.90;;;2.50;;
19016;SDS011;9641;51.494;6.670;2022-11-15T15:55:57;2.23;;;2.00;;
19016;SDS011;9641;51.494;6.670;2022-11-15T15:58:25;3.47;;;2.10;;
19016;SDS011;9641;51.494;6.670;2022-11-15T16:00:53;2.53;;;2.30;;
19016;SDS011;9641;51.494;6.670;2022-11-15T16:03:22;4.10;;;2.07;;
19016;SDS011;9641;51.494;6.670;2022-11-15T16:05:53;3.17;;;2.57;;
19016;SDS011;9641;51.494;6.670;2022-11-15T16:08:23;3.67;;;2.33;;
19016;SDS011;9641;51.494;6.670;2022-11-15T16:10:51;2.13;;;1.93;;
19016;SDS011;9641;51.494;6.670;2022-11-15T16:13:19;3.87;;;2.47;;
19016;SDS011;9641;51.494;6.670;2022-11-15T16:15:47;5.33;;;2.20;;
19016;SDS011;9641;51.494;6.670;2022-11-15T16:18:17;3.53;;;2.00;;
19016;SDS011;9641;51.494;6.670;2022-11-15T16:20:44;2.80;;;1.87;;
19016;SDS011;9641;51.494;6.670;2022-11-15T16:23:17;3.30;;;2.40;;
19016;SDS011;9641;51.494;6.670;2022-11-15T16:25:50;2.50;;;2.30;;
19016;SDS011;9641;51.494;6.670;2022-11-15T16:28:21;2.50;;;2.30;;
19016;SDS011;9641;51.494;6.670;2022-11-15T16:30:59;3.53;;;2.33;;
19016;SDS011;9641;51.494;6.670;2022-11-15T16:33:35;3.60;;;2.40;;
19016;SDS011;9641;51.494;6.670;2022-11-15T16:36:02;3.37;;;2.67;;
19016;SDS011;9641;51.494;6.670;2022-11-15T16:38:29;2.83;;;2.40;;
19016;SDS011;9641;51.494;6.670;2022-11-15T16:40:58;9.37;;;3.53;;
19016;SDS011;9641;51.494;6.670;2022-11-15T16:43:25;7.47;;;3.10;;
19016;SDS011;9641;51.494;6.670;2022-11-15T16:45:52;5.43;;;2.87;;
19016;SDS011;9641;51.494;6.670;2022-11-15T16:48:21;8.10;;;3.07;;
19016;SDS011;9641;51.494;6.670;2022-11-15T16:50:49;5.20;;;3.10;;